sensor_id;sensor_type;location;lat;lon;timestamp;temperature;humidity
7502;DHT22;3792;47.740;7.606;2023-05-10T00:02:11;14.50;99.90
7502;DHT22;3792;47.740;7.606;2023-05-10T00:04:38;14.50;99.90
7502;DHT22;3792;47.740;7.606;2023-05-10T00:07:05;14.40;99.90
7502;DHT22;3792;47.740;7.606;2023-05-10T00:09:32;14.40;99.90
7502;DHT22;3792;47.740;7.606;2023-05-10T00:12:01;14.50;99.90
7502;DHT22;3792;47.740;7.606;2023-05-10T00:14:28;14.40;99.90
7502;DHT22;3792;47.740;7.606;2023-05-10T00:16:55;14.40;99.90
7502;DHT22;3792;47.740;7.606;2023-05-10T00:19:22;14.30;99.90
7502;DHT22;3792;47.740;7.606;2023-05-10T00:21:49;14.30;99.90
7502;DHT22;3792;47.740;7.606;2023-05-10T00:24:16;14.40;99.90
7502;DHT22;3792;47.740;7.606;2023-05-10T00:26:43;14.40;99.90
7502;DHT22;3792;47.740;7.606;2023-05-10T00:29:12;14.50;99.90
7502;DHT22;3792;47.740;7.606;2023-05-10T00:31:39;14.40;99.90
7502;DHT22;3792;47.740;7.606;2023-05-10T00:34:06;14.40;99.90
7502;DHT22;3792;47.740;7.606;2023-05-10T00:36:33;14.30;99.90
7502;DHT22;3792;47.740;7.606;2023-05-10T00:39:00;14.30;99.90
7502;DHT22;3792;47.740;7.606;2023-05-10T00:41:29;14.30;99.90
7502;DHT22;3792;47.740;7.606;2023-05-10T00:43:57;14.40;99.90
7502;DHT22;3792;47.740;7.606;2023-05-10T00:46:26;14.40;99.90
7502;DHT22;3792;47.740;7.606;2023-05-10T00:48:53;14.40;99.90
7502;DHT22;3792;47.740;7.606;2023-05-10T00:51:21;14.50;99.90
7502;DHT22;3792;47.740;7.606;2023-05-10T00:53:48;14.50;99.90
7502;DHT22;3792;47.740;7.606;2023-05-10T00:56:16;14.50;99.90
7502;DHT22;3792;47.740;7.606;2023-05-10T00:58:43;14.60;99.90
7502;DHT22;3792;47.740;7.606;2023-05-10T01:01:11;14.60;99.90
7502;DHT22;3792;47.740;7.606;2023-05-10T01:03:40;14.60;99.90
7502;DHT22;3792;47.740;7.606;2023-05-10T01:06:08;14.50;99.90
7502;DHT22;3792;47.740;7.606;2023-05-10T01:08:35;14.50;99.90
7502;DHT22;3792;47.740;7.606;2023-05-10T01:11:03;14.40;99.90
7502;DHT22;3792;47.740;7.606;2023-05-10T01:13:32;14.40;99.90
7502;DHT22;3792;47.740;7.606;2023-05-10T01:16:00;14.40;99.90
7502;DHT22;3792;47.740;7.606;2023-05-10T01:18:29;14.40;99.90
7502;DHT22;3792;47.740;7.606;2023-05-10T01:21:07;14.40;99.90
7502;DHT22;3792;47.740;7.606;2023-05-10T01:23:57;14.40;99.90
7502;DHT22;3792;47.740;7.606;2023-05-10T01:27:02;14.40;99.90
7502;DHT22;3792;47.740;7.606;2023-05-10T01:29:53;14.30;99.90
7502;DHT22;3792;47.740;7.606;2023-05-10T01:32:35;14.30;99.90
7502;DHT22;3792;47.740;7.606;2023-05-10T01:35:06;14.20;99.90
7502;DHT22;3792;47.740;7.606;2023-05-10T01:37:41;14.20;99.90
7502;DHT22;3792;47.740;7.606;2023-05-10T01:40:15;14.10;99.90
7502;DHT22;3792;47.740;7.606;2023-05-10T01:42:49;14.10;99.90
7502;DHT22;3792;47.740;7.606;2023-05-10T01:45:24;14.00;99.90
7502;DHT22;3792;47.740;7.606;2023-05-10T01:48:02;14.00;99.90
7502;DHT22;3792;47.740;7.606;2023-05-10T01:50:31;13.90;99.90
7502;DHT22;3792;47.740;7.606;2023-05-10T01:53:00;13.90;99.90
7502;DHT22;3792;47.740;7.606;2023-05-10T01:55:30;13.90;99.90
7502;DHT22;3792;47.740;7.606;2023-05-10T01:58:03;13.80;99.90
7502;DHT22;3792;47.740;7.606;2023-05-10T02:00:32;13.80;99.90
7502;DHT22;3792;47.740;7.606;2023-05-10T02:03:05;13.90;99.90
7502;DHT22;3792;47.740;7.606;2023-05-10T02:05:34;13.90;99.90
7502;DHT22;3792;47.740;7.606;2023-05-10T02:08:05;13.80;99.90
7502;DHT22;3792;47.740;7.606;2023-05-10T02:10:32;13.80;99.90
7502;DHT22;3792;47.740;7.606;2023-05-10T02:13:02;13.90;99.90
7502;DHT22;3792;47.740;7.606;2023-05-10T02:15:30;13.80;99.90
7502;DHT22;3792;47.740;7.606;2023-05-10T02:17:59;13.90;99.90
7502;DHT22;3792;47.740;7.606;2023-05-10T02:20:29;14.00;99.90
7502;DHT22;3792;47.740;7.606;2023-05-10T02:22:58;14.10;99.90
7502;DHT22;3792;47.740;7.606;2023-05-10T02:25:26;14.10;99.90
7502;DHT22;3792;47.740;7.606;2023-05-10T02:27:55;14.10;99.90
7502;DHT22;3792;47.740;7.606;2023-05-10T02:30:23;14.10;99.90
7502;DHT22;3792;47.740;7.606;2023-05-10T02:32:51;14.20;99.90
7502;DHT22;3792;47.740;7.606;2023-05-10T02:35:19;14.20;99.90
7502;DHT22;3792;47.740;7.606;2023-05-10T02:37:48;14.20;99.90
7502;DHT22;3792;47.740;7.606;2023-05-10T02:40:16;14.20;99.90
7502;DHT22;3792;47.740;7.606;2023-05-10T02:42:44;14.20;99.90
7502;DHT22;3792;47.740;7.606;2023-05-10T02:45:17;14.20;99.90
7502;DHT22;3792;47.740;7.606;2023-05-10T02:47:45;14.20;99.90
7502;DHT22;3792;47.740;7.606;2023-05-10T02:50:12;14.20;99.90
7502;DHT22;3792;47.740;7.606;2023-05-10T02:52:41;14.20;99.90
7502;DHT22;3792;47.740;7.606;2023-05-10T02:55:12;14.10;99.90
7502;DHT22;3792;47.740;7.606;2023-05-10T02:57:45;14.20;99.90
7502;DHT22;3792;47.740;7.606;2023-05-10T03:00:13;14.20;99.90
7502;DHT22;3792;47.740;7.606;2023-05-10T03:02:40;14.10;99.90
7502;DHT22;3792;47.740;7.606;2023-05-10T03:05:08;14.10;99.90
7502;DHT22;3792;47.740;7.606;2023-05-10T03:07:35;14.10;99.90
7502;DHT22;3792;47.740;7.606;2023-05-10T03:10:03;14.10;99.90
7502;DHT22;3792;47.740;7.606;2023-05-10T03:12:41;14.10;99.90
7502;DHT22;3792;47.740;7.606;2023-05-10T03:15:18;14.10;99.90
7502;DHT22;3792;47.740;7.606;2023-05-10T03:17:52;14.00;99.90
7502;DHT22;3792;47.740;7.606;2023-05-10T03:20:24;14.00;99.90
7502;DHT22;3792;47.740;7.606;2023-05-10T03:22:55;13.90;99.90
7502;DHT22;3792;47.740;7.606;2023-05-10T03:25:27;13.70;99.90
7502;DHT22;3792;47.740;7.606;2023-05-10T03:27:57;13.70;99.90
7502;DHT22;3792;47.740;7.606;2023-05-10T03:30:25;13.60;99.90
7502;DHT22;3792;47.740;7.606;2023-05-10T03:32:52;13.60;99.90
7502;DHT22;3792;47.740;7.606;2023-05-10T03:35:19;13.60;99.90
7502;DHT22;3792;47.740;7.606;2023-05-10T03:37:46;13.60;99.90
7502;DHT22;3792;47.740;7.606;2023-05-10T03:40:13;13.50;99.90
7502;DHT22;3792;47.740;7.606;2023-05-10T03:42:41;13.50;99.90
7502;DHT22;3792;47.740;7.606;2023-05-10T03:45:10;13.50;99.90
7502;DHT22;3792;47.740;7.606;2023-05-10T03:47:37;13.40;99.90
7502;DHT22;3792;47.740;7.606;2023-05-10T03:50:05;13.40;99.90
7502;DHT22;3792;47.740;7.606;2023-05-10T03:52:32;13.40;99.90
7502;DHT22;3792;47.740;7.606;2023-05-10T03:54:59;13.40;99.90
7502;DHT22;3792;47.740;7.606;2023-05-10T03:57:28;13.30;99.90
7502;DHT22;3792;47.740;7.606;2023-05-10T03:59:55;13.30;99.90
7502;DHT22;3792;47.740;7.606;2023-05-10T04:02:23;13.20;99.90
7502;DHT22;3792;47.740;7.606;2023-05-10T04:04:50;13.20;99.90
7502;DHT22;3792;47.740;7.606;2023-05-10T04:07:17;13.20;99.90
7502;DHT22;3792;47.740;7.606;2023-05-10T04:09:45;13.20;99.90
7502;DHT22;3792;47.740;7.606;2023-05-10T04:12:12;13.10;99.90
7502;DHT22;3792;47.740;7.606;2023-05-10T04:14:39;13.20;99.90
7502;DHT22;3792;47.740;7.606;2023-05-10T04:17:06;13.20;99.90
7502;DHT22;3792;47.740;7.606;2023-05-10T04:19:34;13.20;99.90
7502;DHT22;3792;47.740;7.606;2023-05-10T04:22:02;13.20;99.90
7502;DHT22;3792;47.740;7.606;2023-05-10T04:24:29;13.20;99.90
7502;DHT22;3792;47.740;7.606;2023-05-10T04:26:56;13.20;99.90
7502;DHT22;3792;47.740;7.606;2023-05-10T04:29:23;13.10;99.90
7502;DHT22;3792;47.740;7.606;2023-05-10T04:31:50;13.10;99.90
7502;DHT22;3792;47.740;7.606;2023-05-10T04:34:17;13.10;99.90
7502;DHT22;3792;47.740;7.606;2023-05-10T04:36:46;13.20;99.90
7502;DHT22;3792;47.740;7.606;2023-05-10T04:39:13;13.20;99.90
7502;DHT22;3792;47.740;7.606;2023-05-10T04:41:40;13.30;99.90
7502;DHT22;3792;47.740;7.606;2023-05-10T04:44:07;13.30;99.90
7502;DHT22;3792;47.740;7.606;2023-05-10T04:46:34;13.20;99.90
7502;DHT22;3792;47.740;7.606;2023-05-10T04:49:01;13.20;99.90
7502;DHT22;3792;47.740;7.606;2023-05-10T04:51:28;13.30;99.90
7502;DHT22;3792;47.740;7.606;2023-05-10T04:53:57;13.30;99.90
7502;DHT22;3792;47.740;7.606;2023-05-10T04:56:24;13.20;99.90
7502;DHT22;3792;47.740;7.606;2023-05-10T04:58:51;13.30;99.90
7502;DHT22;3792;47.740;7.606;2023-05-10T05:01:18;13.20;99.90
7502;DHT22;3792;47.740;7.606;2023-05-10T05:03:45;13.30;99.90
7502;DHT22;3792;47.740;7.606;2023-05-10T05:06:12;13.30;99.90
7502;DHT22;3792;47.740;7.606;2023-05-10T05:08:39;13.30;99.90
7502;DHT22;3792;47.740;7.606;2023-05-10T05:11:08;13.20;99.90
7502;DHT22;3792;47.740;7.606;2023-05-10T05:13:35;13.30;99.90
7502;DHT22;3792;47.740;7.606;2023-05-10T05:16:02;13.40;99.90
7502;DHT22;3792;47.740;7.606;2023-05-10T05:18:29;13.40;99.90
7502;DHT22;3792;47.740;7.606;2023-05-10T05:20:56;13.30;99.90
7502;DHT22;3792;47.740;7.606;2023-05-10T05:23:23;13.40;99.90
7502;DHT22;3792;47.740;7.606;2023-05-10T05:25:51;13.40;99.90
7502;DHT22;3792;47.740;7.606;2023-05-10T05:28:20;13.40;99.90
7502;DHT22;3792;47.740;7.606;2023-05-10T05:30:47;13.30;99.90
7502;DHT22;3792;47.740;7.606;2023-05-10T05:33:14;13.20;99.90
7502;DHT22;3792;47.740;7.606;2023-05-10T05:35:42;13.30;99.90
7502;DHT22;3792;47.740;7.606;2023-05-10T05:38:13;13.30;99.90
7502;DHT22;3792;47.740;7.606;2023-05-10T05:40:40;13.30;99.90
7502;DHT22;3792;47.740;7.606;2023-05-10T05:43:07;13.30;99.90
7502;DHT22;3792;47.740;7.606;2023-05-10T05:45:35;13.30;99.90
7502;DHT22;3792;47.740;7.606;2023-05-10T05:48:03;13.40;99.90
7502;DHT22;3792;47.740;7.606;2023-05-10T05:50:30;13.40;99.90
7502;DHT22;3792;47.740;7.606;2023-05-10T05:52:57;13.50;99.90
7502;DHT22;3792;47.740;7.606;2023-05-10T05:55:24;13.60;99.90
7502;DHT22;3792;47.740;7.606;2023-05-10T05:57:51;13.70;99.90
7502;DHT22;3792;47.740;7.606;2023-05-10T06:00:19;13.90;99.90
7502;DHT22;3792;47.740;7.606;2023-05-10T06:02:48;13.90;99.90
7502;DHT22;3792;47.740;7.606;2023-05-10T06:05:15;13.90;99.90
7502;DHT22;3792;47.740;7.606;2023-05-10T06:07:42;13.80;99.90
7502;DHT22;3792;47.740;7.606;2023-05-10T06:10:09;13.90;99.90
7502;DHT22;3792;47.740;7.606;2023-05-10T06:12:36;14.00;99.90
7502;DHT22;3792;47.740;7.606;2023-05-10T06:15:04;13.90;99.90
7502;DHT22;3792;47.740;7.606;2023-05-10T06:17:31;13.90;99.90
7502;DHT22;3792;47.740;7.606;2023-05-10T06:19:59;14.00;99.90
7502;DHT22;3792;47.740;7.606;2023-05-10T06:22:27;13.90;99.90
7502;DHT22;3792;47.740;7.606;2023-05-10T06:24:54;13.90;99.90
7502;DHT22;3792;47.740;7.606;2023-05-10T06:27:21;13.70;99.90
7502;DHT22;3792;47.740;7.606;2023-05-10T06:29:48;13.80;99.90
7502;DHT22;3792;47.740;7.606;2023-05-10T06:32:15;13.80;99.90
7502;DHT22;3792;47.740;7.606;2023-05-10T06:34:42;13.80;99.90
7502;DHT22;3792;47.740;7.606;2023-05-10T06:37:11;13.80;99.90
7502;DHT22;3792;47.740;7.606;2023-05-10T06:39:38;13.90;99.90
7502;DHT22;3792;47.740;7.606;2023-05-10T06:42:05;14.00;99.90
7502;DHT22;3792;47.740;7.606;2023-05-10T06:44:32;14.10;99.90
7502;DHT22;3792;47.740;7.606;2023-05-10T06:46:59;14.40;99.90
7502;DHT22;3792;47.740;7.606;2023-05-10T06:49:26;14.70;99.90
7502;DHT22;3792;47.740;7.606;2023-05-10T06:51:55;14.80;99.90
7502;DHT22;3792;47.740;7.606;2023-05-10T06:54:23;15.00;99.90
7502;DHT22;3792;47.740;7.606;2023-05-10T06:56:50;15.10;99.90
7502;DHT22;3792;47.740;7.606;2023-05-10T06:59:17;15.20;99.90
7502;DHT22;3792;47.740;7.606;2023-05-10T07:01:45;15.40;99.90
7502;DHT22;3792;47.740;7.606;2023-05-10T07:04:12;15.50;99.90
7502;DHT22;3792;47.740;7.606;2023-05-10T07:06:39;15.40;99.90
7502;DHT22;3792;47.740;7.606;2023-05-10T07:09:06;15.40;99.90
7502;DHT22;3792;47.740;7.606;2023-05-10T07:11:34;15.30;99.90
7502;DHT22;3792;47.740;7.606;2023-05-10T07:14:03;15.20;99.90
7502;DHT22;3792;47.740;7.606;2023-05-10T07:16:30;15.00;99.90
7502;DHT22;3792;47.740;7.606;2023-05-10T07:18:57;15.00;99.90
7502;DHT22;3792;47.740;7.606;2023-05-10T07:21:24;15.00;99.90
7502;DHT22;3792;47.740;7.606;2023-05-10T07:23:54;15.10;99.90
7502;DHT22;3792;47.740;7.606;2023-05-10T07:26:21;15.00;99.90
7502;DHT22;3792;47.740;7.606;2023-05-10T07:28:49;15.10;99.90
7502;DHT22;3792;47.740;7.606;2023-05-10T07:31:16;15.10;99.90
7502;DHT22;3792;47.740;7.606;2023-05-10T07:33:43;15.00;99.90
7502;DHT22;3792;47.740;7.606;2023-05-10T07:36:10;15.20;99.90
7502;DHT22;3792;47.740;7.606;2023-05-10T07:38:37;15.20;99.90
7502;DHT22;3792;47.740;7.606;2023-05-10T07:41:05;15.30;99.90
7502;DHT22;3792;47.740;7.606;2023-05-10T07:43:32;15.40;99.90
7502;DHT22;3792;47.740;7.606;2023-05-10T07:46:00;15.60;99.90
7502;DHT22;3792;47.740;7.606;2023-05-10T07:48:27;15.90;99.90
7502;DHT22;3792;47.740;7.606;2023-05-10T07:50:54;15.90;99.90
7502;DHT22;3792;47.740;7.606;2023-05-10T07:53:21;15.60;99.90
7502;DHT22;3792;47.740;7.606;2023-05-10T07:55:50;15.50;99.90
7502;DHT22;3792;47.740;7.606;2023-05-10T07:58:17;15.50;99.90
7502;DHT22;3792;47.740;7.606;2023-05-10T08:00:44;15.60;99.90
7502;DHT22;3792;47.740;7.606;2023-05-10T08:03:13;15.80;99.90
7502;DHT22;3792;47.740;7.606;2023-05-10T08:05:40;15.90;99.90
7502;DHT22;3792;47.740;7.606;2023-05-10T08:08:07;16.10;99.90
7502;DHT22;3792;47.740;7.606;2023-05-10T08:10:34;15.90;99.90
7502;DHT22;3792;47.740;7.606;2023-05-10T08:13:02;15.80;99.90
7502;DHT22;3792;47.740;7.606;2023-05-10T08:15:29;16.00;99.90
7502;DHT22;3792;47.740;7.606;2023-05-10T08:17:56;16.10;99.90
7502;DHT22;3792;47.740;7.606;2023-05-10T08:20:25;16.00;99.90
7502;DHT22;3792;47.740;7.606;2023-05-10T08:22:52;15.80;99.90
7502;DHT22;3792;47.740;7.606;2023-05-10T08:25:19;15.70;99.90
7502;DHT22;3792;47.740;7.606;2023-05-10T08:27:46;15.70;99.90
7502;DHT22;3792;47.740;7.606;2023-05-10T08:30:13;15.70;99.90
7502;DHT22;3792;47.740;7.606;2023-05-10T08:32:40;15.70;99.90
7502;DHT22;3792;47.740;7.606;2023-05-10T08:35:07;15.60;99.90
7502;DHT22;3792;47.740;7.606;2023-05-10T08:37:35;15.60;99.90
7502;DHT22;3792;47.740;7.606;2023-05-10T08:40:03;15.60;99.90
7502;DHT22;3792;47.740;7.606;2023-05-10T08:42:30;15.60;99.90
7502;DHT22;3792;47.740;7.606;2023-05-10T08:44:59;15.60;99.90
7502;DHT22;3792;47.740;7.606;2023-05-10T08:47:27;15.70;99.90
7502;DHT22;3792;47.740;7.606;2023-05-10T08:49:54;15.70;99.90
7502;DHT22;3792;47.740;7.606;2023-05-10T08:52:22;15.70;99.90
7502;DHT22;3792;47.740;7.606;2023-05-10T08:54:52;15.90;99.90
7502;DHT22;3792;47.740;7.606;2023-05-10T08:57:19;16.00;99.90
7502;DHT22;3792;47.740;7.606;2023-05-10T08:59:46;16.00;99.90
7502;DHT22;3792;47.740;7.606;2023-05-10T09:02:14;16.00;99.90
7502;DHT22;3792;47.740;7.606;2023-05-10T09:04:41;15.90;99.90
7502;DHT22;3792;47.740;7.606;2023-05-10T09:07:08;16.10;99.90
7502;DHT22;3792;47.740;7.606;2023-05-10T09:09:35;16.20;99.90
7502;DHT22;3792;47.740;7.606;2023-05-10T09:12:04;16.00;99.90
7502;DHT22;3792;47.740;7.606;2023-05-10T09:14:34;15.90;99.90
7502;DHT22;3792;47.740;7.606;2023-05-10T09:17:02;15.90;99.90
7502;DHT22;3792;47.740;7.606;2023-05-10T09:19:29;15.90;99.90
7502;DHT22;3792;47.740;7.606;2023-05-10T09:21:56;15.80;99.90
7502;DHT22;3792;47.740;7.606;2023-05-10T09:24:25;15.70;99.90
7502;DHT22;3792;47.740;7.606;2023-05-10T09:26:53;15.70;99.90
7502;DHT22;3792;47.740;7.606;2023-05-10T09:29:22;15.60;99.90
7502;DHT22;3792;47.740;7.606;2023-05-10T09:31:50;15.60;99.90
7502;DHT22;3792;47.740;7.606;2023-05-10T09:34:22;15.60;99.90
7502;DHT22;3792;47.740;7.606;2023-05-10T09:36:55;15.70;99.90
7502;DHT22;3792;47.740;7.606;2023-05-10T09:39:30;15.90;99.90
7502;DHT22;3792;47.740;7.606;2023-05-10T09:41:58;16.10;99.90
7502;DHT22;3792;47.740;7.606;2023-05-10T09:44:27;16.20;99.90
7502;DHT22;3792;47.740;7.606;2023-05-10T09:46:55;16.30;99.90
7502;DHT22;3792;47.740;7.606;2023-05-10T09:49:22;16.40;99.90
7502;DHT22;3792;47.740;7.606;2023-05-10T09:52:00;16.50;99.90
7502;DHT22;3792;47.740;7.606;2023-05-10T09:54:28;16.70;99.90
7502;DHT22;3792;47.740;7.606;2023-05-10T09:56:55;16.70;99.90
7502;DHT22;3792;47.740;7.606;2023-05-10T09:59:25;16.60;99.90
7502;DHT22;3792;47.740;7.606;2023-05-10T10:01:56;16.40;99.90
7502;DHT22;3792;47.740;7.606;2023-05-10T10:04:23;16.20;99.90
7502;DHT22;3792;47.740;7.606;2023-05-10T10:07:01;16.10;99.90
7502;DHT22;3792;47.740;7.606;2023-05-10T10:09:29;15.90;99.90
7502;DHT22;3792;47.740;7.606;2023-05-10T10:11:56;16.10;99.90
7502;DHT22;3792;47.740;7.606;2023-05-10T10:14:23;16.30;99.90
7502;DHT22;3792;47.740;7.606;2023-05-10T10:16:53;16.50;99.90
7502;DHT22;3792;47.740;7.606;2023-05-10T10:19:21;16.50;99.90
7502;DHT22;3792;47.740;7.606;2023-05-10T10:21:50;16.60;99.90
7502;DHT22;3792;47.740;7.606;2023-05-10T10:24:17;16.90;99.90
7502;DHT22;3792;47.740;7.606;2023-05-10T10:26:44;16.90;99.90
7502;DHT22;3792;47.740;7.606;2023-05-10T10:29:21;17.20;99.90
7502;DHT22;3792;47.740;7.606;2023-05-10T10:31:57;17.30;99.90
7502;DHT22;3792;47.740;7.606;2023-05-10T10:34:29;17.50;99.90
7502;DHT22;3792;47.740;7.606;2023-05-10T10:36:58;17.50;99.90
7502;DHT22;3792;47.740;7.606;2023-05-10T10:39:30;17.50;99.90
7502;DHT22;3792;47.740;7.606;2023-05-10T10:41:58;17.80;99.90
7502;DHT22;3792;47.740;7.606;2023-05-10T10:44:33;17.90;99.90
7502;DHT22;3792;47.740;7.606;2023-05-10T10:47:07;17.90;99.90
7502;DHT22;3792;47.740;7.606;2023-05-10T10:49:43;17.90;99.90
7502;DHT22;3792;47.740;7.606;2023-05-10T10:52:25;17.80;99.90
7502;DHT22;3792;47.740;7.606;2023-05-10T10:54:59;17.50;99.90
7502;DHT22;3792;47.740;7.606;2023-05-10T10:57:27;17.30;99.90
7502;DHT22;3792;47.740;7.606;2023-05-10T11:00:18;17.30;99.90
7502;DHT22;3792;47.740;7.606;2023-05-10T11:02:48;17.30;99.90
7502;DHT22;3792;47.740;7.606;2023-05-10T11:05:27;17.10;99.90
7502;DHT22;3792;47.740;7.606;2023-05-10T11:08:02;17.00;99.90
7502;DHT22;3792;47.740;7.606;2023-05-10T11:10:33;16.90;99.90
7502;DHT22;3792;47.740;7.606;2023-05-10T11:13:00;16.80;99.90
7502;DHT22;3792;47.740;7.606;2023-05-10T11:15:31;16.80;99.90
7502;DHT22;3792;47.740;7.606;2023-05-10T11:18:16;16.70;99.90
7502;DHT22;3792;47.740;7.606;2023-05-10T11:20:45;16.50;99.90
7502;DHT22;3792;47.740;7.606;2023-05-10T11:23:16;16.60;99.90
7502;DHT22;3792;47.740;7.606;2023-05-10T11:25:44;16.80;99.90
7502;DHT22;3792;47.740;7.606;2023-05-10T11:28:12;16.80;99.90
7502;DHT22;3792;47.740;7.606;2023-05-10T11:30:39;16.80;99.90
7502;DHT22;3792;47.740;7.606;2023-05-10T11:33:14;16.90;99.90
7502;DHT22;3792;47.740;7.606;2023-05-10T11:35:42;17.20;99.90
7502;DHT22;3792;47.740;7.606;2023-05-10T11:38:09;17.70;99.90
7502;DHT22;3792;47.740;7.606;2023-05-10T11:40:38;18.00;99.90
7502;DHT22;3792;47.740;7.606;2023-05-10T11:43:05;18.40;99.90
7502;DHT22;3792;47.740;7.606;2023-05-10T11:45:32;18.70;99.90
7502;DHT22;3792;47.740;7.606;2023-05-10T11:48:00;18.90;99.90
7502;DHT22;3792;47.740;7.606;2023-05-10T11:50:29;18.90;99.90
7502;DHT22;3792;47.740;7.606;2023-05-10T11:52:57;18.60;99.90
7502;DHT22;3792;47.740;7.606;2023-05-10T11:55:24;18.10;99.90
7502;DHT22;3792;47.740;7.606;2023-05-10T11:57:59;17.80;99.90
7502;DHT22;3792;47.740;7.606;2023-05-10T12:00:38;17.70;99.90
7502;DHT22;3792;47.740;7.606;2023-05-10T12:03:11;18.20;99.90
7502;DHT22;3792;47.740;7.606;2023-05-10T12:05:40;18.30;99.60
7502;DHT22;3792;47.740;7.606;2023-05-10T12:08:12;17.90;99.90
7502;DHT22;3792;47.740;7.606;2023-05-10T12:10:40;17.50;99.90
7502;DHT22;3792;47.740;7.606;2023-05-10T12:13:11;17.20;99.90
7502;DHT22;3792;47.740;7.606;2023-05-10T12:15:40;16.90;99.90
7502;DHT22;3792;47.740;7.606;2023-05-10T12:18:08;16.90;99.90
7502;DHT22;3792;47.740;7.606;2023-05-10T12:20:37;17.00;99.90
7502;DHT22;3792;47.740;7.606;2023-05-10T12:23:09;17.30;99.90
7502;DHT22;3792;47.740;7.606;2023-05-10T12:25:37;17.60;99.90
7502;DHT22;3792;47.740;7.606;2023-05-10T12:28:06;17.90;99.90
7502;DHT22;3792;47.740;7.606;2023-05-10T12:30:34;18.20;99.90
7502;DHT22;3792;47.740;7.606;2023-05-10T12:33:02;18.40;99.90
7502;DHT22;3792;47.740;7.606;2023-05-10T12:35:33;18.70;99.90
7502;DHT22;3792;47.740;7.606;2023-05-10T12:38:00;18.80;99.00
7502;DHT22;3792;47.740;7.606;2023-05-10T12:40:29;18.70;98.20
7502;DHT22;3792;47.740;7.606;2023-05-10T12:42:56;18.60;98.40
7502;DHT22;3792;47.740;7.606;2023-05-10T12:45:23;18.50;98.10
7502;DHT22;3792;47.740;7.606;2023-05-10T12:47:50;18.30;97.20
7502;DHT22;3792;47.740;7.606;2023-05-10T12:50:21;18.40;98.30
7502;DHT22;3792;47.740;7.606;2023-05-10T12:52:50;18.20;98.40
7502;DHT22;3792;47.740;7.606;2023-05-10T12:55:18;18.00;98.80
7502;DHT22;3792;47.740;7.606;2023-05-10T12:57:46;18.00;99.60
7502;DHT22;3792;47.740;7.606;2023-05-10T13:00:14;17.70;98.20
7502;DHT22;3792;47.740;7.606;2023-05-10T13:02:41;17.50;98.50
7502;DHT22;3792;47.740;7.606;2023-05-10T13:05:09;17.60;98.70
7502;DHT22;3792;47.740;7.606;2023-05-10T13:07:36;17.60;98.70
7502;DHT22;3792;47.740;7.606;2023-05-10T13:10:04;17.70;98.90
7502;DHT22;3792;47.740;7.606;2023-05-10T13:12:32;17.60;99.30
7502;DHT22;3792;47.740;7.606;2023-05-10T13:15:00;17.40;99.30
7502;DHT22;3792;47.740;7.606;2023-05-10T13:17:28;17.30;99.90
7502;DHT22;3792;47.740;7.606;2023-05-10T13:19:55;17.20;99.90
7502;DHT22;3792;47.740;7.606;2023-05-10T13:22:23;17.20;99.90
7502;DHT22;3792;47.740;7.606;2023-05-10T13:24:50;17.20;99.90
7502;DHT22;3792;47.740;7.606;2023-05-10T13:27:17;17.00;99.90
7502;DHT22;3792;47.740;7.606;2023-05-10T13:29:44;16.80;99.90
7502;DHT22;3792;47.740;7.606;2023-05-10T13:32:12;16.60;99.90
7502;DHT22;3792;47.740;7.606;2023-05-10T13:34:40;16.60;99.90
7502;DHT22;3792;47.740;7.606;2023-05-10T13:37:07;17.00;99.90
7502;DHT22;3792;47.740;7.606;2023-05-10T13:39:34;17.70;99.90
7502;DHT22;3792;47.740;7.606;2023-05-10T13:42:03;18.00;99.90
7502;DHT22;3792;47.740;7.606;2023-05-10T13:44:30;18.20;99.90
7502;DHT22;3792;47.740;7.606;2023-05-10T13:46:59;18.40;99.90
7502;DHT22;3792;47.740;7.606;2023-05-10T13:49:27;18.60;99.90
7502;DHT22;3792;47.740;7.606;2023-05-10T13:51:54;18.50;99.30
7502;DHT22;3792;47.740;7.606;2023-05-10T13:54:21;18.00;99.50
7502;DHT22;3792;47.740;7.606;2023-05-10T13:56:48;17.70;99.90
7502;DHT22;3792;47.740;7.606;2023-05-10T13:59:16;17.50;99.90
7502;DHT22;3792;47.740;7.606;2023-05-10T14:01:43;17.50;99.90
7502;DHT22;3792;47.740;7.606;2023-05-10T14:04:10;17.60;99.90
7502;DHT22;3792;47.740;7.606;2023-05-10T14:06:39;17.80;99.60
7502;DHT22;3792;47.740;7.606;2023-05-10T14:09:06;18.30;99.90
7502;DHT22;3792;47.740;7.606;2023-05-10T14:11:33;18.50;99.80
7502;DHT22;3792;47.740;7.606;2023-05-10T14:14:00;19.00;99.80
7502;DHT22;3792;47.740;7.606;2023-05-10T14:16:27;19.20;99.40
7502;DHT22;3792;47.740;7.606;2023-05-10T14:18:54;19.30;97.80
7502;DHT22;3792;47.740;7.606;2023-05-10T14:21:21;19.40;98.00
7502;DHT22;3792;47.740;7.606;2023-05-10T14:23:50;19.40;98.10
7502;DHT22;3792;47.740;7.606;2023-05-10T14:26:17;19.60;98.60
7502;DHT22;3792;47.740;7.606;2023-05-10T14:28:44;19.70;98.50
7502;DHT22;3792;47.740;7.606;2023-05-10T14:31:11;19.70;99.40
7502;DHT22;3792;47.740;7.606;2023-05-10T14:33:38;19.70;99.10
7502;DHT22;3792;47.740;7.606;2023-05-10T14:36:06;19.70;98.60
7502;DHT22;3792;47.740;7.606;2023-05-10T14:38:34;19.90;98.60
7502;DHT22;3792;47.740;7.606;2023-05-10T14:41:02;19.90;99.70
7502;DHT22;3792;47.740;7.606;2023-05-10T14:43:29;19.80;98.80
7502;DHT22;3792;47.740;7.606;2023-05-10T14:45:56;19.70;98.50
7502;DHT22;3792;47.740;7.606;2023-05-10T14:48:23;19.60;98.20
7502;DHT22;3792;47.740;7.606;2023-05-10T14:50:51;19.30;98.00
7502;DHT22;3792;47.740;7.606;2023-05-10T14:53:18;18.90;98.40
7502;DHT22;3792;47.740;7.606;2023-05-10T14:55:46;18.60;99.60
7502;DHT22;3792;47.740;7.606;2023-05-10T14:58:14;18.50;99.90
7502;DHT22;3792;47.740;7.606;2023-05-10T15:00:42;18.30;99.50
7502;DHT22;3792;47.740;7.606;2023-05-10T15:03:11;17.90;99.90
7502;DHT22;3792;47.740;7.606;2023-05-10T15:05:38;17.70;99.90
7502;DHT22;3792;47.740;7.606;2023-05-10T15:08:06;17.70;99.90
7502;DHT22;3792;47.740;7.606;2023-05-10T15:10:33;17.60;99.90
7502;DHT22;3792;47.740;7.606;2023-05-10T15:13:00;17.50;98.30
7502;DHT22;3792;47.740;7.606;2023-05-10T15:15:29;17.20;98.50
7502;DHT22;3792;47.740;7.606;2023-05-10T15:17:56;17.20;98.80
7502;DHT22;3792;47.740;7.606;2023-05-10T15:20:23;17.10;99.50
7502;DHT22;3792;47.740;7.606;2023-05-10T15:22:50;17.10;99.90
7502;DHT22;3792;47.740;7.606;2023-05-10T15:25:17;16.80;99.90
7502;DHT22;3792;47.740;7.606;2023-05-10T15:27:44;16.70;99.90
7502;DHT22;3792;47.740;7.606;2023-05-10T15:30:12;16.70;99.90
7502;DHT22;3792;47.740;7.606;2023-05-10T15:32:40;16.70;99.90
7502;DHT22;3792;47.740;7.606;2023-05-10T15:35:08;16.80;99.90
7502;DHT22;3792;47.740;7.606;2023-05-10T15:37:36;16.70;99.90
7502;DHT22;3792;47.740;7.606;2023-05-10T15:40:03;16.80;99.90
7502;DHT22;3792;47.740;7.606;2023-05-10T15:42:31;16.90;99.90
7502;DHT22;3792;47.740;7.606;2023-05-10T15:44:58;17.00;99.90
7502;DHT22;3792;47.740;7.606;2023-05-10T15:47:26;16.80;99.90
7502;DHT22;3792;47.740;7.606;2023-05-10T15:49:55;16.80;99.90
7502;DHT22;3792;47.740;7.606;2023-05-10T15:52:22;16.80;99.90
7502;DHT22;3792;47.740;7.606;2023-05-10T15:54:49;16.80;99.90
7502;DHT22;3792;47.740;7.606;2023-05-10T15:57:16;16.80;99.90
7502;DHT22;3792;47.740;7.606;2023-05-10T15:59:43;16.70;99.90
7502;DHT22;3792;47.740;7.606;2023-05-10T16:02:10;16.70;99.90
7502;DHT22;3792;47.740;7.606;2023-05-10T16:04:37;16.60;99.90
7502;DHT22;3792;47.740;7.606;2023-05-10T16:07:06;16.60;99.90
7502;DHT22;3792;47.740;7.606;2023-05-10T16:09:33;16.50;99.90
7502;DHT22;3792;47.740;7.606;2023-05-10T16:12:00;16.50;99.90